sensor_id;sensor_type;location;lat;lon;timestamp;P1;durP1;ratioP1;P2;durP2;ratioP2
50126;SDS011;36024;47.974;16.398;2023-04-25T00:00:15;1.00;;;1.00;;
50126;SDS011;36024;47.974;16.398;2023-04-25T00:02:42;0.97;;;0.97;;
50126;SDS011;36024;47.974;16.398;2023-04-25T00:05:09;2.20;;;1.40;;
50126;SDS011;36024;47.974;16.398;2023-04-25T00:07:37;1.60;;;1.13;;
50126;SDS011;36024;47.974;16.398;2023-04-25T00:10:04;2.07;;;1.30;;
50126;SDS011;36024;47.974;16.398;2023-04-25T00:12:32;1.37;;;1.27;;
50126;SDS011;36024;47.974;16.398;2023-04-25T00:14:59;1.93;;;1.23;;
50126;SDS011;36024;47.974;16.398;2023-04-25T00:17:26;1.50;;;1.40;;
50126;SDS011;36024;47.974;16.398;2023-04-25T00:19:53;1.60;;;1.10;;
50126;SDS011;36024;47.974;16.398;2023-04-25T00:22:20;1.67;;;1.20;;
50126;SDS011;36024;47.974;16.398;2023-04-25T00:24:47;1.40;;;1.30;;
50126;SDS011;36024;47.974;16.398;2023-04-25T00:27:13;2.03;;;1.20;;
50126;SDS011;36024;47.974;16.398;2023-04-25T00:29:40;1.20;;;1.20;;
50126;SDS011;36024;47.974;16.398;2023-04-25T00:32:07;1.70;;;1.50;;
50126;SDS011;36024;47.974;16.398;2023-04-25T00:34:33;1.40;;;1.30;;
50126;SDS011;36024;47.974;16.398;2023-04-25T00:37:00;1.53;;;1.43;;
50126;SDS011;36024;47.974;16.398;2023-04-25T00:39:30;2.57;;;1.40;;
50126;SDS011;36024;47.974;16.398;2023-04-25T00:41:57;1.10;;;1.00;;
50126;SDS011;36024;47.974;16.398;2023-04-25T00:44:24;1.30;;;1.20;;
50126;SDS011;36024;47.974;16.398;2023-04-25T00:46:51;2.00;;;1.40;;
50126;SDS011;36024;47.974;16.398;2023-04-25T00:49:18;1.50;;;1.40;;
50126;SDS011;36024;47.974;16.398;2023-04-25T00:51:45;2.07;;;1.50;;
50126;SDS011;36024;47.974;16.398;2023-04-25T00:54:12;2.90;;;1.30;;
50126;SDS011;36024;47.974;16.398;2023-04-25T00:56:39;2.63;;;1.37;;
50126;SDS011;36024;47.974;16.398;2023-04-25T00:59:06;1.97;;;1.50;;
50126;SDS011;36024;47.974;16.398;2023-04-25T01:01:33;2.10;;;1.60;;
50126;SDS011;36024;47.974;16.398;2023-04-25T01:04:00;1.47;;;1.37;;
50126;SDS011;36024;47.974;16.398;2023-04-25T01:06:27;1.80;;;1.30;;
50126;SDS011;36024;47.974;16.398;2023-04-25T01:08:54;1.77;;;1.53;;
50126;SDS011;36024;47.974;16.398;2023-04-25T01:11:21;1.50;;;1.40;;
50126;SDS011;36024;47.974;16.398;2023-04-25T01:13:48;2.47;;;1.63;;
50126;SDS011;36024;47.974;16.398;2023-04-25T01:16:15;2.07;;;1.60;;
50126;SDS011;36024;47.974;16.398;2023-04-25T01:18:42;2.10;;;1.30;;
50126;SDS011;36024;47.974;16.398;2023-04-25T01:21:09;1.60;;;1.50;;
50126;SDS011;36024;47.974;16.398;2023-04-25T01:23:38;1.67;;;1.57;;
50126;SDS011;36024;47.974;16.398;2023-04-25T01:26:06;2.43;;;1.60;;
50126;SDS011;36024;47.974;16.398;2023-04-25T01:28:36;1.43;;;1.33;;
50126;SDS011;36024;47.974;16.398;2023-04-25T01:31:03;2.37;;;1.40;;
50126;SDS011;36024;47.974;16.398;2023-04-25T01:33:30;2.87;;;1.50;;
50126;SDS011;36024;47.974;16.398;2023-04-25T01:35:57;3.17;;;1.43;;
50126;SDS011;36024;47.974;16.398;2023-04-25T01:38:23;1.77;;;1.47;;
50126;SDS011;36024;47.974;16.398;2023-04-25T01:40:51;1.93;;;1.60;;
50126;SDS011;36024;47.974;16.398;2023-04-25T01:43:18;1.50;;;1.40;;
50126;SDS011;36024;47.974;16.398;2023-04-25T01:45:45;1.50;;;1.40;;
50126;SDS011;36024;47.974;16.398;2023-04-25T01:48:12;1.60;;;1.50;;
50126;SDS011;36024;47.974;16.398;2023-04-25T01:50:42;1.60;;;1.50;;
50126;SDS011;36024;47.974;16.398;2023-04-25T01:53:11;2.03;;;1.43;;
50126;SDS011;36024;47.974;16.398;2023-04-25T01:55:40;1.70;;;1.50;;
50126;SDS011;36024;47.974;16.398;2023-04-25T01:58:10;1.60;;;1.50;;
50126;SDS011;36024;47.974;16.398;2023-04-25T02:00:57;2.83;;;1.73;;
50126;SDS011;36024;47.974;16.398;2023-04-25T02:03:30;1.50;;;1.40;;
50126;SDS011;36024;47.974;16.398;2023-04-25T02:05:59;1.60;;;1.50;;
50126;SDS011;36024;47.974;16.398;2023-04-25T02:08:27;1.90;;;1.70;;
50126;SDS011;36024;47.974;16.398;2023-04-25T02:10:54;2.57;;;1.70;;
50126;SDS011;36024;47.974;16.398;2023-04-25T02:13:22;2.37;;;1.70;;
50126;SDS011;36024;47.974;16.398;2023-04-25T02:15:57;1.77;;;1.60;;
50126;SDS011;36024;47.974;16.398;2023-04-25T02:18:24;3.30;;;1.60;;
50126;SDS011;36024;47.974;16.398;2023-04-25T02:20:52;1.80;;;1.70;;
50126;SDS011;36024;47.974;16.398;2023-04-25T02:23:19;1.97;;;1.77;;
50126;SDS011;36024;47.974;16.398;2023-04-25T02:25:46;2.03;;;1.93;;
50126;SDS011;36024;47.974;16.398;2023-04-25T02:28:13;1.97;;;1.57;;
50126;SDS011;36024;47.974;16.398;2023-04-25T02:30:39;1.97;;;1.50;;
50126;SDS011;36024;47.974;16.398;2023-04-25T02:33:06;2.13;;;1.90;;
50126;SDS011;36024;47.974;16.398;2023-04-25T02:35:34;1.97;;;1.70;;
50126;SDS011;36024;47.974;16.398;2023-04-25T02:38:01;1.77;;;1.67;;
50126;SDS011;36024;47.974;16.398;2023-04-25T02:40:28;1.80;;;1.70;;
50126;SDS011;36024;47.974;16.398;2023-04-25T02:42:55;2.00;;;1.80;;
50126;SDS011;36024;47.974;16.398;2023-04-25T02:45:25;1.70;;;1.60;;
50126;SDS011;36024;47.974;16.398;2023-04-25T02:47:52;1.70;;;1.60;;
50126;SDS011;36024;47.974;16.398;2023-04-25T02:50:18;2.57;;;1.70;;
50126;SDS011;36024;47.974;16.398;2023-04-25T02:52:45;2.20;;;1.70;;
50126;SDS011;36024;47.974;16.398;2023-04-25T02:55:16;2.03;;;1.70;;
50126;SDS011;36024;47.974;16.398;2023-04-25T02:57:44;2.90;;;1.50;;
50126;SDS011;36024;47.974;16.398;2023-04-25T03:00:18;1.80;;;1.70;;
50126;SDS011;36024;47.974;16.398;2023-04-25T03:02:45;1.97;;;1.77;;
50126;SDS011;36024;47.974;16.398;2023-04-25T03:05:12;1.53;;;1.43;;
50126;SDS011;36024;47.974;16.398;2023-04-25T03:07:38;2.20;;;1.67;;
50126;SDS011;36024;47.974;16.398;2023-04-25T03:10:09;1.60;;;1.47;;
50126;SDS011;36024;47.974;16.398;2023-04-25T03:12:36;2.00;;;1.80;;
50126;SDS011;36024;47.974;16.398;2023-04-25T03:15:03;1.70;;;1.60;;
50126;SDS011;36024;47.974;16.398;2023-04-25T03:17:30;2.10;;;1.90;;
50126;SDS011;36024;47.974;16.398;2023-04-25T03:19:57;1.70;;;1.60;;
50126;SDS011;36024;47.974;16.398;2023-04-25T03:22:24;2.23;;;1.80;;
50126;SDS011;36024;47.974;16.398;2023-04-25T03:24:51;2.03;;;1.90;;
50126;SDS011;36024;47.974;16.398;2023-04-25T03:27:18;2.40;;;1.60;;
50126;SDS011;36024;47.974;16.398;2023-04-25T03:29:45;2.00;;;1.80;;
50126;SDS011;36024;47.974;16.398;2023-04-25T03:32:12;1.83;;;1.50;;
50126;SDS011;36024;47.974;16.398;2023-04-25T03:34:39;1.60;;;1.50;;
50126;SDS011;36024;47.974;16.398;2023-04-25T03:37:06;1.80;;;1.70;;
50126;SDS011;36024;47.974;16.398;2023-04-25T03:39:36;2.60;;;1.70;;
50126;SDS011;36024;47.974;16.398;2023-04-25T03:42:05;2.23;;;1.80;;
50126;SDS011;36024;47.974;16.398;2023-04-25T03:44:32;1.70;;;1.60;;
50126;SDS011;36024;47.974;16.398;2023-04-25T03:46:59;3.23;;;1.60;;
50126;SDS011;36024;47.974;16.398;2023-04-25T03:49:26;2.87;;;1.50;;
50126;SDS011;36024;47.974;16.398;2023-04-25T03:51:57;1.83;;;1.60;;
50126;SDS011;36024;47.974;16.398;2023-04-25T03:54:24;1.80;;;1.70;;
50126;SDS011;36024;47.974;16.398;2023-04-25T03:57:13;2.53;;;1.70;;
50126;SDS011;36024;47.974;16.398;2023-04-25T03:59:41;1.70;;;1.60;;
50126;SDS011;36024;47.974;16.398;2023-04-25T04:02:10;2.80;;;1.70;;
50126;SDS011;36024;47.974;16.398;2023-04-25T04:04:38;1.80;;;1.70;;
50126;SDS011;36024;47.974;16.398;2023-04-25T04:07:05;2.87;;;1.70;;
50126;SDS011;36024;47.974;16.398;2023-04-25T04:09:35;2.00;;;1.80;;
50126;SDS011;36024;47.974;16.398;2023-04-25T04:12:06;1.90;;;1.70;;
50126;SDS011;36024;47.974;16.398;2023-04-25T04:14:35;3.73;;;2.10;;
50126;SDS011;36024;47.974;16.398;2023-04-25T04:17:01;2.23;;;2.03;;
50126;SDS011;36024;47.974;16.398;2023-04-25T04:19:28;1.87;;;1.67;;
50126;SDS011;36024;47.974;16.398;2023-04-25T04:22:22;2.57;;;1.63;;
50126;SDS011;36024;47.974;16.398;2023-04-25T04:24:51;2.23;;;1.73;;
50126;SDS011;36024;47.974;16.398;2023-04-25T04:27:23;2.10;;;1.90;;
50126;SDS011;36024;47.974;16.398;2023-04-25T04:30:03;2.53;;;1.77;;
50126;SDS011;36024;47.974;16.398;2023-04-25T04:32:36;3.00;;;1.83;;
50126;SDS011;36024;47.974;16.398;2023-04-25T04:35:04;2.07;;;1.90;;
50126;SDS011;36024;47.974;16.398;2023-04-25T04:37:32;4.03;;;2.10;;
50126;SDS011;36024;47.974;16.398;2023-04-25T04:40:00;2.13;;;1.93;;
50126;SDS011;36024;47.974;16.398;2023-04-25T04:42:43;2.00;;;1.90;;
50126;SDS011;36024;47.974;16.398;2023-04-25T04:45:29;2.10;;;1.90;;
50126;SDS011;36024;47.974;16.398;2023-04-25T04:48:15;2.17;;;2.00;;
50126;SDS011;36024;47.974;16.398;2023-04-25T04:51:00;2.30;;;2.10;;
50126;SDS011;36024;47.974;16.398;2023-04-25T04:53:50;2.27;;;2.07;;
50126;SDS011;36024;47.974;16.398;2023-04-25T04:56:41;2.23;;;2.03;;
50126;SDS011;36024;47.974;16.398;2023-04-25T04:59:25;3.80;;;2.33;;
50126;SDS011;36024;47.974;16.398;2023-04-25T05:02:20;2.70;;;2.30;;
50126;SDS011;36024;47.974;16.398;2023-04-25T05:05:01;2.40;;;2.17;;
50126;SDS011;36024;47.974;16.398;2023-04-25T05:07:46;3.07;;;2.13;;
50126;SDS011;36024;47.974;16.398;2023-04-25T05:10:42;3.10;;;2.13;;
50126;SDS011;36024;47.974;16.398;2023-04-25T05:13:18;2.97;;;2.50;;
50126;SDS011;36024;47.974;16.398;2023-04-25T05:16:08;2.43;;;2.23;;
50126;SDS011;36024;47.974;16.398;2023-04-25T05:18:57;3.03;;;2.37;;
50126;SDS011;36024;47.974;16.398;2023-04-25T05:21:49;2.33;;;2.13;;
50126;SDS011;36024;47.974;16.398;2023-04-25T05:24:42;3.50;;;2.20;;
50126;SDS011;36024;47.974;16.398;2023-04-25T05:27:29;2.50;;;2.30;;
50126;SDS011;36024;47.974;16.398;2023-04-25T05:30:15;6.30;;;2.40;;
50126;SDS011;36024;47.974;16.398;2023-04-25T05:32:58;3.93;;;2.27;;
50126;SDS011;36024;47.974;16.398;2023-04-25T05:35:26;4.43;;;2.37;;
50126;SDS011;36024;47.974;16.398;2023-04-25T05:37:52;2.13;;;1.93;;
50126;SDS011;36024;47.974;16.398;2023-04-25T05:40:30;2.47;;;2.10;;
50126;SDS011;36024;47.974;16.398;2023-04-25T05:43:10;2.40;;;2.00;;
50126;SDS011;36024;47.974;16.398;2023-04-25T05:45:53;2.80;;;2.10;;
50126;SDS011;36024;47.974;16.398;2023-04-25T05:48:49;2.30;;;2.07;;
50126;SDS011;36024;47.974;16.398;2023-04-25T05:51:41;4.60;;;2.00;;
50126;SDS011;36024;47.974;16.398;2023-04-25T05:54:19;2.30;;;2.10;;
50126;SDS011;36024;47.974;16.398;2023-04-25T05:56:46;2.23;;;1.73;;
50126;SDS011;36024;47.974;16.398;2023-04-25T05:59:13;2.80;;;2.03;;
50126;SDS011;36024;47.974;16.398;2023-04-25T06:01:40;3.23;;;2.00;;
50126;SDS011;36024;47.974;16.398;2023-04-25T06:04:07;2.30;;;2.10;;
50126;SDS011;36024;47.974;16.398;2023-04-25T06:06:34;2.60;;;2.40;;
50126;SDS011;36024;47.974;16.398;2023-04-25T06:09:01;2.60;;;2.40;;
50126;SDS011;36024;47.974;16.398;2023-04-25T06:11:30;2.37;;;2.10;;
50126;SDS011;36024;47.974;16.398;2023-04-25T06:13:56;2.43;;;2.20;;
50126;SDS011;36024;47.974;16.398;2023-04-25T06:16:23;3.73;;;2.20;;
50126;SDS011;36024;47.974;16.398;2023-04-25T06:18:52;1.97;;;1.77;;
50126;SDS011;36024;47.974;16.398;2023-04-25T06:21:19;1.97;;;1.63;;
50126;SDS011;36024;47.974;16.398;2023-04-25T06:23:49;2.27;;;1.83;;
50126;SDS011;36024;47.974;16.398;2023-04-25T06:26:20;2.07;;;1.87;;
50126;SDS011;36024;47.974;16.398;2023-04-25T06:28:47;1.87;;;1.77;;
50126;SDS011;36024;47.974;16.398;2023-04-25T06:31:14;2.00;;;1.80;;
50126;SDS011;36024;47.974;16.398;2023-04-25T06:33:43;1.90;;;1.80;;
50126;SDS011;36024;47.974;16.398;2023-04-25T06:36:09;1.70;;;1.60;;
50126;SDS011;36024;47.974;16.398;2023-04-25T06:38:37;2.17;;;1.97;;
50126;SDS011;36024;47.974;16.398;2023-04-25T06:41:04;1.80;;;1.70;;
50126;SDS011;36024;47.974;16.398;2023-04-25T06:43:34;3.07;;;1.80;;
50126;SDS011;36024;47.974;16.398;2023-04-25T06:46:01;1.63;;;1.53;;
50126;SDS011;36024;47.974;16.398;2023-04-25T06:48:30;1.73;;;1.63;;
50126;SDS011;36024;47.974;16.398;2023-04-25T06:50:57;2.90;;;1.87;;
50126;SDS011;36024;47.974;16.398;2023-04-25T06:53:25;2.40;;;1.53;;
50126;SDS011;36024;47.974;16.398;2023-04-25T06:55:58;1.77;;;1.40;;
50126;SDS011;36024;47.974;16.398;2023-04-25T06:58:33;2.47;;;1.70;;
50126;SDS011;36024;47.974;16.398;2023-04-25T07:01:09;2.00;;;1.80;;
50126;SDS011;36024;47.974;16.398;2023-04-25T07:03:36;1.83;;;1.73;;
50126;SDS011;36024;47.974;16.398;2023-04-25T07:06:09;3.23;;;1.77;;
50126;SDS011;36024;47.974;16.398;2023-04-25T07:08:35;2.40;;;1.83;;
50126;SDS011;36024;47.974;16.398;2023-04-25T07:11:02;1.63;;;1.53;;
50126;SDS011;36024;47.974;16.398;2023-04-25T07:13:29;2.03;;;1.70;;
50126;SDS011;36024;47.974;16.398;2023-04-25T07:15:56;2.00;;;1.70;;
50126;SDS011;36024;47.974;16.398;2023-04-25T07:18:23;2.10;;;1.70;;
50126;SDS011;36024;47.974;16.398;2023-04-25T07:20:50;2.17;;;1.97;;
50126;SDS011;36024;47.974;16.398;2023-04-25T07:23:18;1.47;;;1.37;;
50126;SDS011;36024;47.974;16.398;2023-04-25T07:25:46;2.90;;;2.07;;
50126;SDS011;36024;47.974;16.398;2023-04-25T07:28:16;1.40;;;1.30;;
50126;SDS011;36024;47.974;16.398;2023-04-25T07:30:46;2.17;;;1.60;;
50126;SDS011;36024;47.974;16.398;2023-04-25T07:33:12;2.23;;;1.60;;
50126;SDS011;36024;47.974;16.398;2023-04-25T07:35:39;1.67;;;1.40;;
50126;SDS011;36024;47.974;16.398;2023-04-25T07:38:06;3.27;;;1.50;;
50126;SDS011;36024;47.974;16.398;2023-04-25T07:40:33;5.03;;;1.67;;
50126;SDS011;36024;47.974;16.398;2023-04-25T07:43:05;2.10;;;1.60;;
50126;SDS011;36024;47.974;16.398;2023-04-25T07:45:45;2.60;;;1.70;;
50126;SDS011;36024;47.974;16.398;2023-04-25T07:48:17;1.70;;;1.37;;
50126;SDS011;36024;47.974;16.398;2023-04-25T07:50:49;1.97;;;1.40;;
50126;SDS011;36024;47.974;16.398;2023-04-25T07:53:16;1.90;;;1.77;;
50126;SDS011;36024;47.974;16.398;2023-04-25T07:55:51;3.37;;;1.57;;
50126;SDS011;36024;47.974;16.398;2023-04-25T07:58:19;2.47;;;1.90;;
50126;SDS011;36024;47.974;16.398;2023-04-25T08:00:52;2.27;;;1.67;;
50126;SDS011;36024;47.974;16.398;2023-04-25T08:03:39;1.63;;;1.37;;
50126;SDS011;36024;47.974;16.398;2023-04-25T08:06:13;1.80;;;1.70;;
50126;SDS011;36024;47.974;16.398;2023-04-25T08:08:53;2.27;;;1.83;;
50126;SDS011;36024;47.974;16.398;2023-04-25T08:11:23;1.70;;;1.60;;
50126;SDS011;36024;47.974;16.398;2023-04-25T08:13:51;1.80;;;1.30;;
50126;SDS011;36024;47.974;16.398;2023-04-25T08:16:18;2.33;;;1.43;;
50126;SDS011;36024;47.974;16.398;2023-04-25T08:18:45;1.67;;;1.57;;
50126;SDS011;36024;47.974;16.398;2023-04-25T08:21:12;1.90;;;1.67;;
50126;SDS011;36024;47.974;16.398;2023-04-25T08:23:40;1.70;;;1.43;;
50126;SDS011;36024;47.974;16.398;2023-04-25T08:26:13;1.60;;;1.40;;
50126;SDS011;36024;47.974;16.398;2023-04-25T08:28:41;1.97;;;1.70;;
50126;SDS011;36024;47.974;16.398;2023-04-25T08:31:08;1.60;;;1.50;;
50126;SDS011;36024;47.974;16.398;2023-04-25T08:33:44;1.40;;;1.30;;
50126;SDS011;36024;47.974;16.398;2023-04-25T08:36:22;1.93;;;1.53;;
50126;SDS011;36024;47.974;16.398;2023-04-25T08:38:57;1.33;;;1.23;;
50126;SDS011;36024;47.974;16.398;2023-04-25T08:41:25;1.60;;;1.50;;
50126;SDS011;36024;47.974;16.398;2023-04-25T08:43:53;1.90;;;1.67;;
50126;SDS011;36024;47.974;16.398;2023-04-25T08:46:20;1.40;;;1.30;;
50126;SDS011;36024;47.974;16.398;2023-04-25T08:49:05;1.33;;;1.23;;
50126;SDS011;36024;47.974;16.398;2023-04-25T08:51:32;1.50;;;1.40;;
50126;SDS011;36024;47.974;16.398;2023-04-25T08:54:11;1.30;;;1.20;;
50126;SDS011;36024;47.974;16.398;2023-04-25T08:56:44;1.50;;;1.30;;
50126;SDS011;36024;47.974;16.398;2023-04-25T08:59:12;1.30;;;1.20;;
50126;SDS011;36024;47.974;16.398;2023-04-25T09:01:40;2.20;;;1.40;;
50126;SDS011;36024;47.974;16.398;2023-04-25T09:04:07;2.17;;;1.30;;
50126;SDS011;36024;47.974;16.398;2023-04-25T09:06:34;1.90;;;1.40;;
50126;SDS011;36024;47.974;16.398;2023-04-25T09:09:02;2.00;;;1.30;;
50126;SDS011;36024;47.974;16.398;2023-04-25T09:11:31;2.80;;;1.40;;
50126;SDS011;36024;47.974;16.398;2023-04-25T09:14:14;2.23;;;1.27;;
50126;SDS011;36024;47.974;16.398;2023-04-25T09:16:58;1.30;;;1.20;;
50126;SDS011;36024;47.974;16.398;2023-04-25T09:19:37;1.97;;;1.30;;
50126;SDS011;36024;47.974;16.398;2023-04-25T09:22:14;1.47;;;1.30;;
50126;SDS011;36024;47.974;16.398;2023-04-25T09:24:44;3.03;;;1.50;;
50126;SDS011;36024;47.974;16.398;2023-04-25T09:27:18;1.40;;;1.27;;
50126;SDS011;36024;47.974;16.398;2023-04-25T09:29:49;1.93;;;1.47;;
50126;SDS011;36024;47.974;16.398;2023-04-25T09:32:24;2.17;;;1.40;;
50126;SDS011;36024;47.974;16.398;2023-04-25T09:34:54;1.50;;;1.40;;
50126;SDS011;36024;47.974;16.398;2023-04-25T09:37:27;2.10;;;1.30;;
50126;SDS011;36024;47.974;16.398;2023-04-25T09:40:13;2.03;;;1.10;;
50126;SDS011;36024;47.974;16.398;2023-04-25T09:42:51;1.43;;;1.30;;
50126;SDS011;36024;47.974;16.398;2023-04-25T09:45:19;1.50;;;1.40;;
50126;SDS011;36024;47.974;16.398;2023-04-25T09:47:48;2.47;;;1.33;;
50126;SDS011;36024;47.974;16.398;2023-04-25T09:50:22;2.43;;;1.00;;
50126;SDS011;36024;47.974;16.398;2023-04-25T09:53:03;1.13;;;1.03;;
50126;SDS011;36024;47.974;16.398;2023-04-25T09:55:55;2.10;;;1.20;;
50126;SDS011;36024;47.974;16.398;2023-04-25T09:58:25;1.10;;;1.00;;
50126;SDS011;36024;47.974;16.398;2023-04-25T10:00:52;2.10;;;1.03;;
50126;SDS011;36024;47.974;16.398;2023-04-25T10:03:33;2.40;;;1.00;;
50126;SDS011;36024;47.974;16.398;2023-04-25T10:06:22;0.93;;;0.90;;
50126;SDS011;36024;47.974;16.398;2023-04-25T10:08:49;3.10;;;1.20;;
50126;SDS011;36024;47.974;16.398;2023-04-25T10:11:17;2.97;;;1.47;;
50126;SDS011;36024;47.974;16.398;2023-04-25T10:13:44;2.93;;;1.33;;
50126;SDS011;36024;47.974;16.398;2023-04-25T10:16:11;3.70;;;1.40;;
50126;SDS011;36024;47.974;16.398;2023-04-25T10:18:39;2.10;;;2.00;;
50126;SDS011;36024;47.974;16.398;2023-04-25T10:21:06;2.00;;;1.80;;
50126;SDS011;36024;47.974;16.398;2023-04-25T10:23:33;2.83;;;1.70;;
50126;SDS011;36024;47.974;16.398;2023-04-25T10:26:03;2.90;;;1.63;;
50126;SDS011;36024;47.974;16.398;2023-04-25T10:28:30;3.30;;;3.10;;
50126;SDS011;36024;47.974;16.398;2023-04-25T10:31:23;1.87;;;1.77;;
50126;SDS011;36024;47.974;16.398;2023-04-25T10:33:50;2.07;;;1.97;;
50126;SDS011;36024;47.974;16.398;2023-04-25T10:36:18;2.00;;;1.90;;
50126;SDS011;36024;47.974;16.398;2023-04-25T10:38:48;1.97;;;1.70;;
50126;SDS011;36024;47.974;16.398;2023-04-25T10:41:19;3.30;;;1.30;;
50126;SDS011;36024;47.974;16.398;2023-04-25T10:43:47;1.93;;;1.27;;
50126;SDS011;36024;47.974;16.398;2023-04-25T10:48:46;1.83;;;1.20;;
50126;SDS011;36024;47.974;16.398;2023-04-25T10:51:18;1.70;;;1.30;;
50126;SDS011;36024;47.974;16.398;2023-04-25T10:54:08;1.87;;;1.27;;
50126;SDS011;36024;47.974;16.398;2023-04-25T10:56:38;1.23;;;0.97;;
50126;SDS011;36024;47.974;16.398;2023-04-25T10:59:08;1.07;;;0.80;;
50126;SDS011;36024;47.974;16.398;2023-04-25T11:01:40;1.37;;;0.90;;
50126;SDS011;36024;47.974;16.398;2023-04-25T11:04:18;0.80;;;0.80;;
50126;SDS011;36024;47.974;16.398;2023-04-25T11:09:33;1.00;;;0.90;;
50126;SDS011;36024;47.974;16.398;2023-04-25T11:12:00;2.03;;;1.20;;
50126;SDS011;36024;47.974;16.398;2023-04-25T11:14:27;2.40;;;2.03;;
50126;SDS011;36024;47.974;16.398;2023-04-25T11:16:54;1.13;;;0.87;;
50126;SDS011;36024;47.974;16.398;2023-04-25T11:19:26;1.33;;;1.20;;
50126;SDS011;36024;47.974;16.398;2023-04-25T11:22:00;1.47;;;0.80;;
50126;SDS011;36024;47.974;16.398;2023-04-25T11:24:28;2.03;;;1.10;;
50126;SDS011;36024;47.974;16.398;2023-04-25T11:26:55;1.20;;;1.10;;
50126;SDS011;36024;47.974;16.398;2023-04-25T11:29:27;1.00;;;0.90;;
50126;SDS011;36024;47.974;16.398;2023-04-25T11:31:54;3.00;;;2.80;;
50126;SDS011;36024;47.974;16.398;2023-04-25T11:34:25;1.60;;;1.50;;
50126;SDS011;36024;47.974;16.398;2023-04-25T11:36:52;1.77;;;1.40;;
50126;SDS011;36024;47.974;16.398;2023-04-25T11:39:20;2.93;;;1.87;;
50126;SDS011;36024;47.974;16.398;2023-04-25T11:41:46;2.83;;;1.50;;
50126;SDS011;36024;47.974;16.398;2023-04-25T11:44:17;1.87;;;1.77;;
50126;SDS011;36024;47.974;16.398;2023-04-25T11:46:45;1.10;;;1.00;;
50126;SDS011;36024;47.974;16.398;2023-04-25T11:49:12;2.47;;;1.20;;
50126;SDS011;36024;47.974;16.398;2023-04-25T11:54:07;1.40;;;1.30;;
50126;SDS011;36024;47.974;16.398;2023-04-25T11:56:34;2.83;;;1.57;;
50126;SDS011;36024;47.974;16.398;2023-04-25T11:59:02;1.93;;;1.70;;
50126;SDS011;36024;47.974;16.398;2023-04-25T12:01:34;2.33;;;1.80;;
50126;SDS011;36024;47.974;16.398;2023-04-25T12:06:38;1.20;;;1.10;;
50126;SDS011;36024;47.974;16.398;2023-04-25T12:09:07;2.03;;;1.30;;
50126;SDS011;36024;47.974;16.398;2023-04-25T12:11:43;2.03;;;1.30;;
50126;SDS011;36024;47.974;16.398;2023-04-25T12:14:24;1.70;;;1.10;;
50126;SDS011;36024;47.974;16.398;2023-04-25T12:16:58;1.43;;;1.10;;
50126;SDS011;36024;47.974;16.398;2023-04-25T12:19:26;1.57;;;1.20;;
50126;SDS011;36024;47.974;16.398;2023-04-25T12:21:59;1.23;;;0.97;;
50126;SDS011;36024;47.974;16.398;2023-04-25T12:24:27;0.90;;;0.90;;
50126;SDS011;36024;47.974;16.398;2023-04-25T12:27:02;1.70;;;0.93;;
50126;SDS011;36024;47.974;16.398;2023-04-25T12:29:30;0.80;;;0.80;;
50126;SDS011;36024;47.974;16.398;2023-04-25T12:32:14;1.23;;;0.90;;
50126;SDS011;36024;47.974;16.398;2023-04-25T12:34:41;1.20;;;0.80;;
50126;SDS011;36024;47.974;16.398;2023-04-25T12:37:08;1.73;;;0.70;;
50126;SDS011;36024;47.974;16.398;2023-04-25T12:39:35;1.03;;;0.90;;
50126;SDS011;36024;47.974;16.398;2023-04-25T12:42:01;0.87;;;0.77;;
50126;SDS011;36024;47.974;16.398;2023-04-25T12:44:31;0.87;;;0.73;;
50126;SDS011;36024;47.974;16.398;2023-04-25T12:46:58;1.33;;;0.70;;
50126;SDS011;36024;47.974;16.398;2023-04-25T12:49:26;1.40;;;0.70;;
50126;SDS011;36024;47.974;16.398;2023-04-25T12:51:53;1.37;;;0.97;;
50126;SDS011;36024;47.974;16.398;2023-04-25T12:54:19;1.63;;;0.70;;
50126;SDS011;36024;47.974;16.398;2023-04-25T12:56:46;2.00;;;1.10;;
50126;SDS011;36024;47.974;16.398;2023-04-25T12:59:13;1.40;;;0.90;;
50126;SDS011;36024;47.974;16.398;2023-04-25T13:01:40;1.10;;;1.00;;
50126;SDS011;36024;47.974;16.398;2023-04-25T13:04:07;1.03;;;0.80;;
50126;SDS011;36024;47.974;16.398;2023-04-25T13:06:34;0.90;;;0.90;;
50126;SDS011;36024;47.974;16.398;2023-04-25T13:09:00;0.90;;;0.80;;
50126;SDS011;36024;47.974;16.398;2023-04-25T13:11:27;0.80;;;0.80;;
50126;SDS011;36024;47.974;16.398;2023-04-25T13:13:55;1.23;;;0.90;;
50126;SDS011;36024;47.974;16.398;2023-04-25T13:16:22;0.70;;;0.53;;
50126;SDS011;36024;47.974;16.398;2023-04-25T13:18:49;0.70;;;0.63;;
50126;SDS011;36024;47.974;16.398;2023-04-25T13:21:15;0.70;;;0.70;;
50126;SDS011;36024;47.974;16.398;2023-04-25T13:23:42;0.63;;;0.43;;
50126;SDS011;36024;47.974;16.398;2023-04-25T13:26:10;0.73;;;0.60;;
50126;SDS011;36024;47.974;16.398;2023-04-25T13:28:37;0.70;;;0.57;;
50126;SDS011;36024;47.974;16.398;2023-04-25T13:31:04;0.60;;;0.53;;
50126;SDS011;36024;47.974;16.398;2023-04-25T13:33:31;1.00;;;0.70;;
50126;SDS011;36024;47.974;16.398;2023-04-25T13:36:00;0.90;;;0.70;;
50126;SDS011;36024;47.974;16.398;2023-04-25T13:38:27;1.60;;;0.80;;
50126;SDS011;36024;47.974;16.398;2023-04-25T13:40:53;0.73;;;0.70;;
50126;SDS011;36024;47.974;16.398;2023-04-25T13:43:20;1.27;;;0.77;;
50126;SDS011;36024;47.974;16.398;2023-04-25T13:45:50;0.80;;;0.80;;
50126;SDS011;36024;47.974;16.398;2023-04-25T13:48:17;0.67;;;0.60;;
50126;SDS011;36024;47.974;16.398;2023-04-25T13:50:44;0.60;;;0.60;;
50126;SDS011;36024;47.974;16.398;2023-04-25T13:53:12;0.70;;;0.70;;
50126;SDS011;36024;47.974;16.398;2023-04-25T13:55:38;1.23;;;0.80;;
50126;SDS011;36024;47.974;16.398;2023-04-25T13:58:05;1.70;;;0.90;;
50126;SDS011;36024;47.974;16.398;2023-04-25T14:00:37;1.33;;;1.23;;
50126;SDS011;36024;47.974;16.398;2023-04-25T14:03:05;2.27;;;2.00;;
50126;SDS011;36024;47.974;16.398;2023-04-25T14:05:35;1.50;;;1.30;;
50126;SDS011;36024;47.974;16.398;2023-04-25T14:08:05;1.90;;;1.10;;
50126;SDS011;36024;47.974;16.398;2023-04-25T14:10:33;1.23;;;0.80;;
50126;SDS011;36024;47.974;16.398;2023-04-25T14:13:01;1.90;;;0.80;;
50126;SDS011;36024;47.974;16.398;2023-04-25T14:15:30;0.70;;;0.70;;
50126;SDS011;36024;47.974;16.398;2023-04-25T14:18:00;0.90;;;0.80;;
50126;SDS011;36024;47.974;16.398;2023-04-25T14:20:27;1.10;;;0.70;;
50126;SDS011;36024;47.974;16.398;2023-04-25T14:22:54;0.60;;;0.60;;
50126;SDS011;36024;47.974;16.398;2023-04-25T14:25:22;0.87;;;0.80;;
50126;SDS011;36024;47.974;16.398;2023-04-25T14:27:49;0.60;;;0.60;;
50126;SDS011;36024;47.974;16.398;2023-04-25T14:30:17;0.97;;;0.60;;
50126;SDS011;36024;47.974;16.398;2023-04-25T14:32:45;0.57;;;0.57;;
50126;SDS011;36024;47.974;16.398;2023-04-25T14:35:12;1.33;;;0.70;;
50126;SDS011;36024;47.974;16.398;2023-04-25T14:37:39;0.87;;;0.67;;
50126;SDS011;36024;47.974;16.398;2023-04-25T14:40:06;0.80;;;0.80;;
50126;SDS011;36024;47.974;16.398;2023-04-25T14:42:36;1.10;;;0.60;;
50126;SDS011;36024;47.974;16.398;2023-04-25T14:45:04;0.67;;;0.67;;
50126;SDS011;36024;47.974;16.398;2023-04-25T14:47:32;0.93;;;0.70;;
50126;SDS011;36024;47.974;16.398;2023-04-25T14:49:59;0.60;;;0.60;;
50126;SDS011;36024;47.974;16.398;2023-04-25T14:52:27;0.97;;;0.73;;
50126;SDS011;36024;47.974;16.398;2023-04-25T14:54:54;0.70;;;0.60;;
50126;SDS011;36024;47.974;16.398;2023-04-25T14:57:21;0.53;;;0.40;;
50126;SDS011;36024;47.974;16.398;2023-04-25T14:59:48;0.40;;;0.40;;
50126;SDS011;36024;47.974;16.398;2023-04-25T15:02:15;0.50;;;0.50;;